Time;durP1;ratioP1;P1;durP2;ratioP2;P2;SDS_P1;SDS_P2;PMS_P1;PMS_P2;Temp;Humidity;BMP_temperature;BMP_pressure;BME280_temperature;BME280_humidity;BME280_pressure;Samples;Min_cycle;Max_cycle;Signal;HPM_P1;HPM_P2
2023/12/24 00:01:35;;;;;;;;;;;5.60;99.90;;;;;;6246888;23;19920;-68
2023/12/24 00:04:02;;;;;;;;;;;5.70;99.90;;;;;;6246943;23;19966;-69
2023/12/24 00:06:28;;;;;;;;;;;5.70;99.90;;;;;;6247186;23;19920;-69
2023/12/24 00:08:55;;;;;;;;;;;5.70;99.90;;;;;;6246686;23;20343;-69
2023/12/24 07:05:27;;;;;;;;;;;5.90;99.90;;;;;;6187237;23;19931;-74
2023/12/24 07:07:54;;;;;;;;;;;6.00;99.90;;;;;;6187035;23;19927;-75
2023/12/24 07:10:21;;;;;;;;;;;6.00;99.90;;;;;;6187126;23;19927;-74
2023/12/24 07:12:47;;;;;;;;;;;6.00;99.90;;;;;;6187174;23;19928;-74
2023/12/24 07:15:14;;;;;;;;;;;6.00;99.90;;;;;;6187447;23;20255;-74
2023/12/24 07:17:40;;;;;;;;;;;6.10;99.90;;;;;;6187104;23;19931;-74
2023/12/24 07:20:07;;;;;;;;;;;6.00;99.90;;;;;;6187096;23;19927;-74
2023/12/24 07:22:35;;;;;;;;;;;6.10;99.90;;;;;;6186840;23;19920;-74
2023/12/24 07:25:02;;;;;;;;;;;6.10;99.90;;;;;;6186921;23;19939;-74
2023/12/24 07:27:28;;;;;;;;;;;6.10;99.90;;;;;;6187397;23;19921;-74
2023/12/24 07:29:56;;;;;;;;;;;6.20;99.90;;;;;;6187284;23;19921;-75
2023/12/24 07:32:22;;;;;;;;;;;6.10;99.90;;;;;;6203727;23;19929;-75
2023/12/24 07:34:49;;;;;;;;;;;6.20;99.90;;;;;;6203741;23;19948;-75
2023/12/24 07:37:16;;;;;;;;;;;6.20;99.90;;;;;;6195934;23;19973;-74
2023/12/24 07:39:44;;;;;;;;;;;6.20;99.90;;;;;;6191737;23;19920;-74
2023/12/24 07:42:11;;;;;;;;;;;6.20;99.90;;;;;;6189675;23;19920;-74
2023/12/24 07:44:38;;;;;;;;;;;6.30;99.90;;;;;;6187172;23;19920;-73
2023/12/24 07:47:04;;;;;;;;;;;6.30;99.90;;;;;;6186461;23;20366;-74
2023/12/24 07:49:31;;;;;;;;;;;6.30;99.90;;;;;;6186965;23;19920;-75
2023/12/24 07:51:58;;;;;;;;;;;6.30;99.90;;;;;;6186844;23;19921;-75
2023/12/24 07:54:24;;;;;;;;;;;6.30;99.90;;;;;;6186917;23;19920;-74
2023/12/24 07:56:52;;;;;;;;;;;6.40;99.90;;;;;;6186546;23;20352;-75
2023/12/24 07:59:19;;;;;;;;;;;6.30;99.90;;;;;;6186909;23;19927;-75
2023/12/24 08:01:45;;;;;;;;;;;6.40;99.90;;;;;;6186666;23;19920;-74
2023/12/24 08:04:12;;;;;;;;;;;6.40;99.90;;;;;;6186475;23;19928;-74
2023/12/24 08:06:39;;;;;;;;;;;6.40;99.90;;;;;;6185430;23;20252;-74
2023/12/24 08:09:06;;;;;;;;;;;6.40;99.90;;;;;;6185486;23;19927;-74
2023/12/24 08:11:33;;;;;;;;;;;6.40;99.90;;;;;;6185673;23;19920;-73
2023/12/24 08:14:01;;;;;;;;;;;6.40;99.90;;;;;;6185655;23;19920;-73
2023/12/24 08:16:27;;;;;;;;;;;6.50;99.90;;;;;;6184365;23;19924;-73
2023/12/24 08:18:55;;;;;;;;;;;6.50;99.90;;;;;;6186129;23;19920;-70
2023/12/24 08:21:22;;;;;;;;;;;6.50;99.90;;;;;;6185394;23;19925;-70
2023/12/24 08:23:48;;;;;;;;;;;6.50;99.90;;;;;;6185239;23;19920;-70
2023/12/24 08:26:15;;;;;;;;;;;6.50;99.90;;;;;;6185359;23;19921;-68
2023/12/24 08:28:41;;;;;;;;;;;6.50;99.90;;;;;;6185166;23;19920;-69
2023/12/24 08:31:11;;;;;;;;;;;6.50;99.90;;;;;;6185262;23;20303;-69
2023/12/24 08:33:37;;;;;;;;;;;6.60;99.90;;;;;;6186681;23;20291;-71
2023/12/24 08:36:05;;;;;;;;;;;6.70;99.90;;;;;;6188473;23;19920;-70
2023/12/24 08:38:32;;;;;;;;;;;6.80;99.90;;;;;;6188374;23;19921;-70
2023/12/24 08:40:58;;;;;;;;;;;6.80;99.90;;;;;;6188543;23;19927;-70
2023/12/24 08:43:25;;;;;;;;;;;6.80;99.90;;;;;;6190897;23;19920;-75
2023/12/24 08:45:52;;;;;;;;;;;6.80;99.90;;;;;;6192015;23;19963;-74
2023/12/24 08:48:19;;;;;;;;;;;6.80;99.90;;;;;;6191086;23;20264;-75
2023/12/24 08:50:46;;;;;;;;;;;6.70;99.90;;;;;;6188685;23;19920;-76
2023/12/24 08:53:15;;;;;;;;;;;6.70;99.90;;;;;;6188703;23;19927;-74
2023/12/24 08:55:42;;;;;;;;;;;6.70;99.90;;;;;;6188407;23;19921;-75
2023/12/24 08:58:12;;;;;;;;;;;6.70;99.90;;;;;;6188820;23;19991;-75
2023/12/24 09:00:38;;;;;;;;;;;6.60;99.90;;;;;;6187712;23;19927;-73
2023/12/24 09:03:05;;;;;;;;;;;6.60;99.90;;;;;;6186229;23;19920;-74
2023/12/24 09:05:33;;;;;;;;;;;6.60;99.90;;;;;;6110889;23;1738033;-75
2023/12/24 09:07:59;;;;;;;;;;;6.60;99.90;;;;;;6186250;23;19951;-75
2023/12/24 09:10:26;;;;;;;;;;;6.60;99.90;;;;;;6186452;23;19927;-75
2023/12/24 09:12:52;;;;;;;;;;;6.60;99.90;;;;;;6186285;23;19920;-74
2023/12/24 09:15:19;;;;;;;;;;;6.60;99.90;;;;;;6186577;23;19920;-75
2023/12/24 09:17:46;;;;;;;;;;;6.60;99.90;;;;;;6186467;23;19924;-74
2023/12/24 09:20:13;;;;;;;;;;;6.60;99.90;;;;;;6186080;23;20407;-74
2023/12/24 09:22:40;;;;;;;;;;;6.60;99.90;;;;;;6186325;23;20355;-74
2023/12/24 09:25:07;;;;;;;;;;;6.60;99.90;;;;;;6190108;23;20387;-74
2023/12/24 09:27:34;;;;;;;;;;;6.60;99.90;;;;;;6191052;23;19927;-74
2023/12/24 09:30:04;;;;;;;;;;;6.50;99.90;;;;;;6191437;23;20252;-74
2023/12/24 09:32:30;;;;;;;;;;;6.50;99.90;;;;;;6191098;23;19924;-75
2023/12/24 09:34:57;;;;;;;;;;;6.50;99.90;;;;;;6189351;23;19920;-75
2023/12/24 09:37:24;;;;;;;;;;;6.50;99.90;;;;;;6188569;23;19920;-75
2023/12/24 09:39:53;;;;;;;;;;;6.50;99.90;;;;;;6188238;23;20236;-74
2023/12/24 09:42:19;;;;;;;;;;;6.50;99.90;;;;;;6188377;23;19920;-74
2023/12/24 09:44:46;;;;;;;;;;;6.60;99.90;;;;;;6187737;23;19928;-74
2023/12/24 09:47:12;;;;;;;;;;;6.60;99.90;;;;;;6189164;23;19921;-75
2023/12/24 09:49:39;;;;;;;;;;;6.60;99.90;;;;;;6190092;23;19927;-75
2023/12/24 09:52:06;;;;;;;;;;;6.70;99.90;;;;;;6190386;23;19926;-77
2023/12/24 09:54:33;;;;;;;;;;;6.70;99.90;;;;;;6188727;23;19944;-77
2023/12/24 09:57:01;;;;;;;;;;;6.70;99.90;;;;;;6189595;23;19927;-76
2023/12/24 09:59:27;;;;;;;;;;;6.70;99.90;;;;;;6191611;23;19939;-75
2023/12/24 10:01:54;;;;;;;;;;;6.80;99.90;;;;;;6189566;23;19920;-76
2023/12/24 10:04:20;;;;;;;;;;;6.80;99.90;;;;;;6189663;23;19961;-76
2023/12/24 10:06:56;;;;;;;;;;;6.70;99.90;;;;;;6191759;23;19920;-77
2023/12/24 10:09:23;;;;;;;;;;;6.80;99.90;;;;;;6189070;23;20328;-75
2023/12/24 10:12:05;;;;;;;;;;;6.80;99.90;;;;;;6189248;23;19921;-75
2023/12/24 10:14:31;;;;;;;;;;;6.80;99.90;;;;;;6188437;23;19920;-71
2023/12/24 10:16:59;;;;;;;;;;;6.90;99.90;;;;;;6187776;23;19947;-71
2023/12/24 10:19:27;;;;;;;;;;;7.30;99.90;;;;;;6187905;23;19921;-70
2023/12/24 10:22:00;;;;;;;;;;;6.90;99.90;;;;;;6187462;23;20256;-70
2023/12/24 10:24:28;;;;;;;;;;;7.00;99.90;;;;;;6187334;23;20011;-70
2023/12/24 10:27:02;;;;;;;;;;;7.00;99.90;;;;;;6187492;23;19920;-70
2023/12/24 10:29:30;;;;;;;;;;;7.00;99.90;;;;;;6187127;23;20316;-70
2023/12/24 10:31:57;;;;;;;;;;;7.00;99.90;;;;;;6187417;23;19926;-70
2023/12/24 10:34:24;;;;;;;;;;;7.00;99.90;;;;;;6187637;23;19925;-71
2023/12/24 10:36:51;;;;;;;;;;;7.00;99.90;;;;;;6187542;23;19920;-72
2023/12/24 10:39:24;;;;;;;;;;;7.00;99.90;;;;;;6187218;23;19920;-75
2023/12/24 10:41:50;;;;;;;;;;;7.00;99.90;;;;;;6187988;23;19928;-72
2023/12/24 10:44:17;;;;;;;;;;;7.00;99.90;;;;;;6187436;23;19920;-72
2023/12/24 10:46:45;;;;;;;;;;;7.00;99.90;;;;;;6187927;23;19921;-74
2023/12/24 10:49:11;;;;;;;;;;;7.00;99.90;;;;;;6189132;23;20362;-77
2023/12/24 10:51:39;;;;;;;;;;;7.00;99.90;;;;;;6191637;23;20344;-76
2023/12/24 10:54:07;;;;;;;;;;;7.00;99.90;;;;;;6193679;23;19920;-77
2023/12/24 10:56:36;;;;;;;;;;;7.10;99.90;;;;;;6200019;23;19920;-72
2023/12/24 10:59:07;;;;;;;;;;;7.10;99.90;;;;;;6199359;23;19920;-70
2023/12/24 11:01:34;;;;;;;;;;;7.10;99.90;;;;;;6194217;23;19921;-71
2023/12/24 11:04:02;;;;;;;;;;;7.10;99.90;;;;;;6204971;22;19920;-75
2023/12/24 11:06:48;;;;;;;;;;;6.90;99.90;;;;;;6249635;23;20402;-71
2023/12/24 11:09:35;;;;;;;;;;;7.10;99.90;;;;;;6248232;23;19924;-72
2023/12/24 11:12:02;;;;;;;;;;;7.20;99.90;;;;;;6246421;23;19928;-71
2023/12/24 11:14:41;;;;;;;;;;;7.20;99.90;;;;;;6247128;23;19920;-72
2023/12/24 11:17:08;;;;;;;;;;;7.30;99.90;;;;;;6247064;23;19927;-72
2023/12/24 11:19:41;;;;;;;;;;;7.30;99.90;;;;;;6247542;23;19919;-76
2023/12/24 11:22:08;;;;;;;;;;;7.40;99.90;;;;;;6247439;23;20272;-71
2023/12/24 11:24:41;;;;;;;;;;;7.40;99.90;;;;;;6247019;23;19985;-71
2023/12/24 11:27:08;;;;;;;;;;;7.40;99.90;;;;;;6246920;23;20310;-71
2023/12/24 11:29:47;;;;;;;;;;;7.40;99.90;;;;;;6247202;23;19921;-71
2023/12/24 11:32:33;;;;;;;;;;;7.40;99.90;;;;;;6248385;23;19923;-73
2023/12/24 11:35:02;;;;;;;;;;;7.50;99.90;;;;;;6248048;23;19920;-73
2023/12/24 11:37:29;;;;;;;;;;;7.40;99.90;;;;;;6247212;23;19920;-73
2023/12/24 11:39:59;;;;;;;;;;;7.40;99.90;;;;;;6246786;23;19921;-70
2023/12/24 11:42:38;;;;;;;;;;;7.40;99.90;;;;;;6247310;23;19927;-70
2023/12/24 11:45:05;;;;;;;;;;;7.40;99.90;;;;;;6246772;23;19927;-71
2023/12/24 11:47:32;;;;;;;;;;;7.20;99.90;;;;;;6246851;23;19923;-71
2023/12/24 11:49:59;;;;;;;;;;;7.20;99.90;;;;;;6249886;23;19920;-75
2023/12/24 11:52:28;;;;;;;;;;;7.10;99.90;;;;;;6250133;23;19920;-75
2023/12/24 11:54:54;;;;;;;;;;;7.10;99.90;;;;;;6249419;23;19920;-72
2023/12/24 11:57:24;;;;;;;;;;;7.00;99.90;;;;;;6247740;23;19927;-71
2023/12/24 11:59:51;;;;;;;;;;;7.00;99.90;;;;;;6248054;23;20002;-70
2023/12/24 12:02:17;;;;;;;;;;;7.00;99.90;;;;;;6248510;23;19919;-72
2023/12/24 12:04:44;;;;;;;;;;;6.90;99.90;;;;;;6248891;23;19966;-74
2023/12/24 12:07:11;;;;;;;;;;;6.80;99.90;;;;;;6249641;23;19926;-73
2023/12/24 12:09:40;;;;;;;;;;;6.80;99.90;;;;;;6250487;23;20306;-75
2023/12/24 12:12:07;;;;;;;;;;;6.70;99.90;;;;;;6252036;23;19926;-74
2023/12/24 12:14:33;;;;;;;;;;;6.70;99.90;;;;;;6251717;23;19928;-74
2023/12/24 12:17:00;;;;;;;;;;;6.60;99.90;;;;;;6248701;23;19920;-76
2023/12/24 12:19:26;;;;;;;;;;;6.70;99.90;;;;;;6249123;23;19923;-73
2023/12/24 12:21:53;;;;;;;;;;;6.70;99.90;;;;;;6247825;23;20262;-75
2023/12/24 12:24:21;;;;;;;;;;;6.70;99.90;;;;;;6247371;23;20234;-75
2023/12/24 12:26:49;;;;;;;;;;;6.70;99.90;;;;;;6247399;23;19920;-73
2023/12/24 12:29:16;;;;;;;;;;;6.70;99.90;;;;;;6246978;23;19927;-73
2023/12/24 12:31:42;;;;;;;;;;;6.80;99.90;;;;;;6246916;23;19931;-72
2023/12/24 12:34:09;;;;;;;;;;;6.80;99.90;;;;;;6246554;23;19919;-73
2023/12/24 12:36:35;;;;;;;;;;;6.90;99.90;;;;;;6246791;23;19920;-74
2023/12/24 12:39:03;;;;;;;;;;;6.90;99.90;;;;;;6246873;23;19931;-75
2023/12/24 12:41:29;;;;;;;;;;;6.90;99.90;;;;;;6246491;23;20338;-76
2023/12/24 12:43:57;;;;;;;;;;;6.90;99.90;;;;;;6246712;23;19942;-75
2023/12/24 12:46:24;;;;;;;;;;;7.00;99.90;;;;;;6246559;23;20232;-75
2023/12/24 12:48:50;;;;;;;;;;;7.00;99.90;;;;;;6246712;23;19919;-75
2023/12/24 12:51:17;;;;;;;;;;;7.00;99.90;;;;;;6247050;23;19954;-75
2023/12/24 12:53:44;;;;;;;;;;;7.00;99.90;;;;;;6246364;23;20256;-74
2023/12/24 12:56:10;;;;;;;;;;;7.00;99.90;;;;;;6247127;23;19920;-74
2023/12/24 12:58:37;;;;;;;;;;;7.10;99.90;;;;;;6247159;23;19968;-72
2023/12/24 13:01:05;;;;;;;;;;;7.10;99.90;;;;;;6246975;23;19920;-72
2023/12/24 13:03:35;;;;;;;;;;;7.20;99.90;;;;;;6248636;23;19927;-72
2023/12/24 13:06:09;;;;;;;;;;;7.20;99.90;;;;;;6248346;23;20259;-73
2023/12/24 13:08:36;;;;;;;;;;;7.30;99.90;;;;;;6248951;23;19920;-73
2023/12/24 13:11:06;;;;;;;;;;;7.30;99.90;;;;;;6249450;23;19930;-72
2023/12/24 13:13:34;;;;;;;;;;;7.40;99.90;;;;;;6250279;23;19927;-72
2023/12/24 13:16:07;;;;;;;;;;;7.40;99.90;;;;;;6249289;23;19920;-72
2023/12/24 13:18:34;;;;;;;;;;;7.40;99.90;;;;;;6248361;23;19919;-70
2023/12/24 13:21:01;;;;;;;;;;;7.30;99.90;;;;;;6248502;23;19962;-70
2023/12/24 13:23:29;;;;;;;;;;;7.30;99.90;;;;;;6248584;23;20258;-70
2023/12/24 13:25:55;;;;;;;;;;;7.30;99.90;;;;;;6248467;23;19920;-72
2023/12/24 13:28:22;;;;;;;;;;;7.30;99.90;;;;;;6248346;23;19947;-71
2023/12/24 13:30:49;;;;;;;;;;;7.30;99.90;;;;;;6248347;23;19920;-71
2023/12/24 13:33:17;;;;;;;;;;;7.30;99.90;;;;;;6248029;23;19920;-71
2023/12/24 13:35:45;;;;;;;;;;;7.30;99.90;;;;;;6248519;23;20262;-71
2023/12/24 13:38:13;;;;;;;;;;;7.30;99.90;;;;;;6247864;23;19920;-70
2023/12/24 13:40:41;;;;;;;;;;;7.20;99.90;;;;;;6248280;23;19919;-70
2023/12/24 13:43:08;;;;;;;;;;;7.20;99.90;;;;;;6247734;23;20247;-70
2023/12/24 13:45:35;;;;;;;;;;;7.10;99.90;;;;;;6248273;23;19927;-71
2023/12/24 13:48:02;;;;;;;;;;;7.10;99.90;;;;;;6248126;23;19919;-72
2023/12/24 13:50:31;;;;;;;;;;;7.10;99.90;;;;;;6247786;23;20403;-71
2023/12/24 13:52:59;;;;;;;;;;;7.10;99.90;;;;;;6248095;23;20003;-71
2023/12/24 13:55:27;;;;;;;;;;;7.10;99.90;;;;;;6247982;23;20379;-70
2023/12/24 13:57:53;;;;;;;;;;;7.00;99.90;;;;;;6248102;23;20314;-70
2023/12/24 14:00:20;;;;;;;;;;;7.10;99.90;;;;;;6248092;23;19920;-70
2023/12/24 14:02:48;;;;;;;;;;;7.00;99.90;;;;;;6247971;23;19927;-70
2023/12/24 14:05:14;;;;;;;;;;;7.00;99.90;;;;;;6247737;23;20324;-70
2023/12/24 14:07:43;;;;;;;;;;;7.00;99.90;;;;;;6248588;23;20170;-71
2023/12/24 14:10:11;;;;;;;;;;;7.00;99.90;;;;;;6248279;23;19919;-69
2023/12/24 14:12:37;;;;;;;;;;;7.00;99.90;;;;;;6248089;23;19968;-69
2023/12/24 14:15:06;;;;;;;;;;;7.00;99.90;;;;;;6247572;23;19920;-70
2023/12/24 14:17:33;;;;;;;;;;;7.00;99.90;;;;;;6248303;23;20274;-70
2023/12/24 14:20:00;;;;;;;;;;;6.90;99.90;;;;;;6249396;23;19989;-70
2023/12/24 14:22:27;;;;;;;;;;;6.90;99.90;;;;;;6249241;23;19990;-70
2023/12/24 14:24:55;;;;;;;;;;;6.90;99.90;;;;;;6249321;23;19934;-70
2023/12/24 14:27:21;;;;;;;;;;;6.90;99.90;;;;;;6249315;23;20339;-70
2023/12/24 14:29:48;;;;;;;;;;;6.90;99.90;;;;;;6250186;23;19926;-70
2023/12/24 14:32:15;;;;;;;;;;;7.00;99.90;;;;;;6249265;23;19927;-70
2023/12/24 14:34:42;;;;;;;;;;;7.00;99.90;;;;;;6250264;23;19919;-70
2023/12/24 14:37:08;;;;;;;;;;;7.00;99.90;;;;;;6248897;23;20336;-69
2023/12/24 14:39:35;;;;;;;;;;;7.00;99.90;;;;;;6248398;23;19954;-73
2023/12/24 14:42:03;;;;;;;;;;;7.00;99.90;;;;;;6249371;23;19919;-72
2023/12/24 14:44:30;;;;;;;;;;;7.00;99.90;;;;;;6248440;23;20331;-72
2023/12/24 14:46:57;;;;;;;;;;;7.00;99.90;;;;;;6248134;23;19923;-71
2023/12/24 14:49:24;;;;;;;;;;;7.00;99.90;;;;;;6248057;23;19930;-71
2023/12/24 14:51:50;;;;;;;;;;;7.00;99.90;;;;;;6248138;23;19923;-71
2023/12/24 14:54:17;;;;;;;;;;;7.00;99.90;;;;;;6247907;23;20294;-72
2023/12/24 14:56:43;;;;;;;;;;;7.00;99.90;;;;;;6247946;23;20002;-72
2023/12/24 14:59:13;;;;;;;;;;;7.00;99.90;;;;;;6247827;23;19926;-72
2023/12/24 15:01:40;;;;;;;;;;;7.00;99.90;;;;;;6247725;23;20298;-72
2023/12/24 15:04:06;;;;;;;;;;;7.10;99.90;;;;;;6248032;23;19920;-72
2023/12/24 15:06:33;;;;;;;;;;;7.10;99.90;;;;;;6249000;23;19987;-72
2023/12/24 15:09:03;;;;;;;;;;;7.10;99.90;;;;;;6249181;23;19919;-72
2023/12/24 15:11:30;;;;;;;;;;;7.10;99.90;;;;;;6250509;23;20323;-72
2023/12/24 15:13:57;;;;;;;;;;;7.00;99.90;;;;;;6249023;23;19920;-72
2023/12/24 15:16:25;;;;;;;;;;;7.10;99.90;;;;;;6248380;23;19931;-72
2023/12/24 15:18:51;;;;;;;;;;;7.10;99.90;;;;;;6248140;23;19919;-72
2023/12/24 15:21:18;;;;;;;;;;;7.10;99.90;;;;;;6247464;23;19927;-72
2023/12/24 15:23:45;;;;;;;;;;;7.10;99.90;;;;;;6247567;23;19955;-72
2023/12/24 15:26:11;;;;;;;;;;;7.10;99.90;;;;;;6247337;23;19919;-71
2023/12/24 15:28:38;;;;;;;;;;;7.20;99.90;;;;;;6247488;23;19924;-71
2023/12/24 15:31:05;;;;;;;;;;;7.20;99.90;;;;;;6247832;23;19927;-73
2023/12/24 15:33:33;;;;;;;;;;;7.20;99.90;;;;;;6247741;23;19926;-72
2023/12/24 15:35:59;;;;;;;;;;;7.20;99.90;;;;;;6247758;23;19919;-72
2023/12/24 15:38:26;;;;;;;;;;;7.20;99.90;;;;;;6247025;23;20307;-72
2023/12/24 15:40:53;;;;;;;;;;;7.30;99.90;;;;;;6248378;23;19942;-72
2023/12/24 15:43:19;;;;;;;;;;;7.30;99.90;;;;;;6247170;23;19919;-72
2023/12/24 15:45:46;;;;;;;;;;;7.30;99.90;;;;;;6247401;23;19920;-72
2023/12/24 15:48:13;;;;;;;;;;;7.30;99.90;;;;;;6247309;23;19919;-72
2023/12/24 15:50:41;;;;;;;;;;;7.30;99.90;;;;;;6247260;23;19919;-71
2023/12/24 15:53:07;;;;;;;;;;;7.30;99.90;;;;;;6247039;23;19928;-71
2023/12/24 15:55:35;;;;;;;;;;;7.30;99.90;;;;;;6247301;23;19943;-72
2023/12/24 15:58:02;;;;;;;;;;;7.30;99.90;;;;;;6247282;23;19923;-72
2023/12/24 16:00:30;;;;;;;;;;;7.30;99.90;;;;;;6247281;23;20006;-72
2023/12/24 16:02:57;;;;;;;;;;;7.30;99.90;;;;;;6247200;23;19919;-73
2023/12/24 16:05:26;;;;;;;;;;;7.30;99.90;;;;;;6246579;23;19982;-72
2023/12/24 16:07:54;;;;;;;;;;;7.30;99.90;;;;;;6247425;23;19927;-72
2023/12/24 16:10:21;;;;;;;;;;;7.30;99.90;;;;;;6247234;23;20247;-72
2023/12/24 16:12:47;;;;;;;;;;;7.30;99.90;;;;;;6246437;23;20374;-72
2023/12/24 16:15:14;;;;;;;;;;;7.30;99.90;;;;;;6247465;23;19927;-71
2023/12/24 16:17:41;;;;;;;;;;;7.30;99.90;;;;;;6246832;23;19995;-70
2023/12/24 16:20:08;;;;;;;;;;;7.30;99.90;;;;;;6247245;23;19920;-73
2023/12/24 16:22:35;;;;;;;;;;;7.30;99.90;;;;;;6247343;23;19924;-73
2023/12/24 16:25:03;;;;;;;;;;;7.30;99.90;;;;;;6247509;23;19927;-73
2023/12/24 16:27:31;;;;;;;;;;;7.30;99.90;;;;;;6248785;23;19919;-72
2023/12/24 16:29:58;;;;;;;;;;;7.30;99.90;;;;;;6247914;23;19942;-72
2023/12/24 16:32:24;;;;;;;;;;;7.30;99.90;;;;;;6248715;23;19930;-73
2023/12/24 16:34:51;;;;;;;;;;;7.30;99.90;;;;;;6248791;23;19927;-73
2023/12/24 16:37:17;;;;;;;;;;;7.30;99.90;;;;;;6250418;23;19919;-72
2023/12/24 16:39:44;;;;;;;;;;;7.30;99.90;;;;;;6251214;23;19919;-71
2023/12/24 16:42:12;;;;;;;;;;;7.30;99.90;;;;;;6252260;23;19926;-72
2023/12/24 16:44:38;;;;;;;;;;;7.30;99.90;;;;;;6248905;23;19919;-72
2023/12/24 16:47:05;;;;;;;;;;;7.30;99.90;;;;;;6249819;23;20362;-72
2023/12/24 16:49:32;;;;;;;;;;;7.30;99.90;;;;;;6249344;23;19927;-73
2023/12/24 16:51:58;;;;;;;;;;;7.30;99.90;;;;;;6248846;23;19920;-73
2023/12/24 16:54:25;;;;;;;;;;;7.30;99.90;;;;;;6249021;23;19930;-73
2023/12/24 16:56:51;;;;;;;;;;;7.30;99.90;;;;;;6248858;23;19986;-73
2023/12/24 16:59:19;;;;;;;;;;;7.30;99.90;;;;;;6248022;23;19927;-73
2023/12/24 17:01:46;;;;;;;;;;;7.30;99.90;;;;;;6248342;23;19919;-73
2023/12/24 17:04:13;;;;;;;;;;;7.40;99.90;;;;;;6247551;23;20358;-73
2023/12/24 17:06:39;;;;;;;;;;;7.40;99.90;;;;;;6248179;23;19926;-72
2023/12/24 17:09:08;;;;;;;;;;;7.40;99.90;;;;;;6247321;23;19920;-70
2023/12/24 17:11:35;;;;;;;;;;;7.30;99.90;;;;;;6247088;23;19923;-71
2023/12/24 17:14:02;;;;;;;;;;;7.40;99.90;;;;;;6247297;23;19942;-71
2023/12/24 17:16:29;;;;;;;;;;;7.40;99.90;;;;;;6246815;23;19919;-71
2023/12/24 17:18:57;;;;;;;;;;;7.50;99.90;;;;;;6248653;23;20266;-73
2023/12/24 17:21:23;;;;;;;;;;;7.50;99.90;;;;;;6249513;23;19919;-73
2023/12/24 17:23:50;;;;;;;;;;;7.60;99.90;;;;;;6249142;23;19994;-73
2023/12/24 17:26:16;;;;;;;;;;;7.50;99.90;;;;;;6248549;23;19920;-72
2023/12/24 17:28:43;;;;;;;;;;;7.40;99.90;;;;;;6248777;23;19994;-73
2023/12/24 17:31:10;;;;;;;;;;;7.40;99.90;;;;;;6248439;23;19986;-73
2023/12/24 17:33:38;;;;;;;;;;;7.40;99.90;;;;;;6247642;23;20336;-73
2023/12/24 17:36:05;;;;;;;;;;;7.40;99.90;;;;;;6247933;23;19959;-72
2023/12/24 17:38:31;;;;;;;;;;;7.40;99.90;;;;;;6247924;23;19926;-72
2023/12/24 17:40:58;;;;;;;;;;;7.40;99.90;;;;;;6249040;23;19920;-72
2023/12/24 17:43:25;;;;;;;;;;;7.50;99.90;;;;;;6248335;23;19925;-73
2023/12/24 17:45:52;;;;;;;;;;;7.40;99.90;;;;;;6247478;23;19926;-73
2023/12/24 17:48:18;;;;;;;;;;;7.40;99.90;;;;;;6248028;23;19926;-73
2023/12/24 17:50:46;;;;;;;;;;;7.40;99.90;;;;;;6249439;23;19963;-72
2023/12/24 17:53:12;;;;;;;;;;;7.40;99.90;;;;;;6248538;23;20366;-72
2023/12/24 17:55:38;;;;;;;;;;;7.40;99.90;;;;;;6249192;23;19947;-72
2023/12/24 17:58:05;;;;;;;;;;;7.40;99.90;;;;;;6249319;23;19923;-73
2023/12/24 18:00:32;;;;;;;;;;;7.40;99.90;;;;;;6249199;23;19926;-73
2023/12/24 18:02:58;;;;;;;;;;;7.40;99.90;;;;;;6248703;23;19926;-73
2023/12/24 18:05:25;;;;;;;;;;;7.40;99.90;;;;;;6248255;23;19928;-73
2023/12/24 18:07:52;;;;;;;;;;;7.40;99.90;;;;;;6248024;23;20256;-72
2023/12/24 18:10:20;;;;;;;;;;;7.40;99.90;;;;;;6247779;23;20354;-72
2023/12/24 18:12:48;;;;;;;;;;;7.40;99.90;;;;;;6247814;23;19919;-73
2023/12/24 18:15:15;;;;;;;;;;;7.30;99.90;;;;;;6247935;23;19970;-72
2023/12/24 18:17:42;;;;;;;;;;;7.40;99.90;;;;;;6248373;23;19923;-72
2023/12/24 18:20:09;;;;;;;;;;;7.40;99.90;;;;;;6249512;23;19923;-72
2023/12/24 18:22:36;;;;;;;;;;;7.40;99.90;;;;;;6248590;23;20358;-72
2023/12/24 18:25:04;;;;;;;;;;;7.40;99.90;;;;;;6247797;23;19920;-71
2023/12/24 18:27:30;;;;;;;;;;;7.40;99.90;;;;;;6248474;23;19920;-72
2023/12/24 18:29:57;;;;;;;;;;;7.40;99.90;;;;;;6248869;23;19919;-71
2023/12/24 18:32:24;;;;;;;;;;;7.40;99.90;;;;;;6248887;23;19926;-72
2023/12/24 18:34:50;;;;;;;;;;;7.40;99.90;;;;;;6248849;23;19919;-71
2023/12/24 18:37:17;;;;;;;;;;;7.40;99.90;;;;;;6249335;23;19926;-67
2023/12/24 18:39:43;;;;;;;;;;;7.40;99.90;;;;;;6248019;23;19926;-68
2023/12/24 18:42:11;;;;;;;;;;;7.50;99.90;;;;;;6248113;23;19919;-69
2023/12/24 18:44:39;;;;;;;;;;;7.60;99.90;;;;;;6248985;23;19919;-69
2023/12/24 18:47:06;;;;;;;;;;;7.60;99.90;;;;;;6248265;23;19930;-69
2023/12/24 18:49:32;;;;;;;;;;;7.60;99.90;;;;;;6248224;23;19927;-71
2023/12/24 18:51:59;;;;;;;;;;;7.60;99.90;;;;;;6248424;23;19923;-71
2023/12/24 18:54:25;;;;;;;;;;;7.60;99.90;;;;;;6248031;23;19923;-71
2023/12/24 18:56:53;;;;;;;;;;;7.60;99.90;;;;;;6247885;23;19919;-71
2023/12/24 18:59:20;;;;;;;;;;;7.60;99.90;;;;;;6247944;23;19926;-70
2023/12/24 19:01:49;;;;;;;;;;;7.70;99.90;;;;;;6247834;23;19920;-69
2023/12/24 19:04:15;;;;;;;;;;;7.70;99.90;;;;;;6247293;23;19923;-69
2023/12/24 19:06:42;;;;;;;;;;;7.70;99.90;;;;;;6247692;23;19927;-69
2023/12/24 19:09:08;;;;;;;;;;;7.70;99.90;;;;;;6247639;23;20350;-69
2023/12/24 19:11:35;;;;;;;;;;;7.70;99.90;;;;;;6247863;23;19920;-69
2023/12/24 19:14:02;;;;;;;;;;;7.60;99.90;;;;;;6247543;23;19920;-70
2023/12/24 19:16:30;;;;;;;;;;;7.70;99.90;;;;;;6247528;23;19920;-70
2023/12/24 19:18:56;;;;;;;;;;;7.70;99.90;;;;;;6247942;23;20373;-70
2023/12/24 19:21:23;;;;;;;;;;;7.70;99.90;;;;;;6247377;23;19919;-69
2023/12/24 19:23:49;;;;;;;;;;;7.70;99.90;;;;;;6247621;23;19920;-69
2023/12/24 19:26:16;;;;;;;;;;;7.70;99.90;;;;;;6247255;23;19928;-70
2023/12/24 19:28:43;;;;;;;;;;;7.70;99.90;;;;;;6247890;23;19919;-71
2023/12/24 19:31:11;;;;;;;;;;;7.70;99.90;;;;;;6247438;23;19920;-70
2023/12/24 19:33:41;;;;;;;;;;;7.30;99.90;;;;;;6247612;23;19919;-69
2023/12/24 19:36:07;;;;;;;;;;;7.70;99.90;;;;;;6247348;23;19919;-69
2023/12/24 19:38:34;;;;;;;;;;;7.70;99.90;;;;;;6247965;23;19920;-70
2023/12/24 19:41:00;;;;;;;;;;;7.70;99.90;;;;;;6247422;23;19926;-68
2023/12/24 19:43:27;;;;;;;;;;;7.80;99.90;;;;;;6247461;23;19923;-69
2023/12/24 19:45:54;;;;;;;;;;;7.80;99.90;;;;;;6246957;23;20363;-71
2023/12/24 19:48:20;;;;;;;;;;;7.80;99.90;;;;;;6247467;23;20263;-70
2023/12/24 19:50:48;;;;;;;;;;;7.80;99.90;;;;;;6247538;23;19919;-69
2023/12/24 19:53:15;;;;;;;;;;;7.80;99.90;;;;;;6247636;23;19998;-68
2023/12/24 19:55:42;;;;;;;;;;;7.80;99.90;;;;;;6247715;23;19930;-68
2023/12/24 19:58:09;;;;;;;;;;;7.80;99.90;;;;;;6247469;23;19919;-70
2023/12/24 20:00:35;;;;;;;;;;;7.80;99.90;;;;;;6247560;23;19966;-69
2023/12/24 20:03:02;;;;;;;;;;;7.90;99.90;;;;;;6247621;23;19920;-69
2023/12/24 20:05:28;;;;;;;;;;;7.80;99.90;;;;;;6246956;23;19927;-68
2023/12/24 20:07:56;;;;;;;;;;;7.80;99.90;;;;;;6247591;23;19919;-70
2023/12/24 20:10:23;;;;;;;;;;;7.80;99.90;;;;;;6247094;23;20335;-70
2023/12/24 20:12:49;;;;;;;;;;;7.80;99.90;;;;;;6247544;23;19919;-74
2023/12/24 20:15:16;;;;;;;;;;;7.80;99.90;;;;;;6248337;23;19920;-73
2023/12/24 20:17:42;;;;;;;;;;;7.80;99.90;;;;;;6250225;23;19927;-73
2023/12/24 20:20:09;;;;;;;;;;;7.70;99.90;;;;;;6252972;23;19919;-76
2023/12/24 20:22:36;;;;;;;;;;;7.80;99.90;;;;;;6248567;23;20005;-74
2023/12/24 20:25:04;;;;;;;;;;;7.70;99.90;;;;;;6251301;23;19927;-73
2023/12/24 20:27:31;;;;;;;;;;;7.90;99.90;;;;;;6250918;23;19920;-73
2023/12/24 20:29:57;;;;;;;;;;;7.70;99.90;;;;;;6250701;23;19929;-73
2023/12/24 20:32:24;;;;;;;;;;;7.70;99.90;;;;;;6250951;23;19920;-74
2023/12/24 20:34:50;;;;;;;;;;;7.70;99.90;;;;;;6250763;23;19919;-76
2023/12/24 20:37:17;;;;;;;;;;;7.70;99.90;;;;;;6250979;23;19920;-75
2023/12/24 20:39:42;;;;;;;;;;;7.70;99.90;;;;;;6249899;23;19926;-75
2023/12/24 20:42:10;;;;;;;;;;;7.70;99.90;;;;;;6248395;23;19916;-75
2023/12/24 20:44:38;;;;;;;;;;;7.70;99.90;;;;;;6248458;23;19920;-75
2023/12/24 20:47:05;;;;;;;;;;;7.80;99.90;;;;;;6248274;23;19920;-75
2023/12/24 20:49:31;;;;;;;;;;;7.80;99.90;;;;;;6247985;23;20259;-73
2023/12/24 20:51:58;;;;;;;;;;;7.80;99.90;;;;;;6250035;23;20250;-71
2023/12/24 20:54:25;;;;;;;;;;;7.90;99.90;;;;;;6252758;23;19919;-73
2023/12/24 20:56:51;;;;;;;;;;;8.00;99.90;;;;;;6249694;23;19943;-71
2023/12/24 20:59:19;;;;;;;;;;;8.10;99.90;;;;;;6248183;23;19931;-73
2023/12/24 21:01:46;;;;;;;;;;;8.10;99.90;;;;;;6248403;23;19955;-76
2023/12/24 21:04:12;;;;;;;;;;;8.10;99.90;;;;;;6257320;23;19926;-75
2023/12/24 21:06:43;;;;;;;;;;;8.10;99.90;;;;;;6260759;23;19926;-76
2023/12/24 21:09:10;;;;;;;;;;;8.00;99.90;;;;;;6261508;23;19920;-76
2023/12/24 21:11:36;;;;;;;;;;;8.00;99.90;;;;;;6260981;23;19966;-77
2023/12/24 21:14:03;;;;;;;;;;;8.00;99.90;;;;;;6253668;23;19920;-77
2023/12/24 21:16:31;;;;;;;;;;;8.00;99.90;;;;;;6254957;23;20254;-77
2023/12/24 21:18:58;;;;;;;;;;;7.90;99.90;;;;;;6249406;23;20006;-76
2023/12/24 21:21:25;;;;;;;;;;;7.90;99.90;;;;;;6248728;23;19943;-75
2023/12/24 21:23:51;;;;;;;;;;;7.90;99.90;;;;;;6249959;23;20009;-76
2023/12/24 21:26:18;;;;;;;;;;;8.00;99.90;;;;;;6252317;23;19923;-75